Time;durP1;ratioP1;P1;durP2;ratioP2;P2;SDS_P1;SDS_P2;PMS_P1;PMS_P2;Temp;Humidity;BMP_temperature;BMP_pressure;BME280_temperature;BME280_humidity;BME280_pressure;Samples;Min_cycle;Max_cycle;Signal;HPM_P1;HPM_P2
2021/07/16 00:02:26;;;;;;;2.70;2.50;;;15.20;99.90;;;;;;5069729;28;20458;-70
2021/07/16 00:04:53;;;;;;;3.57;2.47;;;15.10;99.90;;;;;;5069217;28;20486;-69
2021/07/16 00:07:20;;;;;;;2.70;2.13;;;15.10;99.90;;;;;;5069580;28;20439;-69
2021/07/16 00:09:47;;;;;;;4.70;2.87;;;15.10;99.90;;;;;;5068868;28;20470;-69
2021/07/16 00:12:14;;;;;;;3.40;3.10;;;15.00;99.90;;;;;;5069438;28;20462;-69
2021/07/16 00:14:42;;;;;;;3.00;2.80;;;15.00;99.90;;;;;;5069206;28;20889;-69
2021/07/16 00:17:09;;;;;;;3.57;2.50;;;14.90;99.90;;;;;;5069310;28;20493;-70
2021/07/16 00:19:35;;;;;;;3.80;3.10;;;14.90;99.90;;;;;;5068673;28;20520;-70
2021/07/16 00:22:02;;;;;;;3.60;2.57;;;14.90;99.90;;;;;;5069493;28;20462;-70
2021/07/16 00:24:29;;;;;;;4.00;3.30;;;14.80;99.90;;;;;;5069292;28;20482;-70
2021/07/16 00:26:56;;;;;;;2.90;2.60;;;14.80;99.90;;;;;;5069196;28;20542;-69
2021/07/16 00:29:24;;;;;;;3.23;2.97;;;14.80;99.90;;;;;;5068821;28;20494;-69
2021/07/16 00:31:52;;;;;;;3.33;3.03;;;14.70;99.90;;;;;;5069466;28;20837;-69
2021/07/16 00:34:19;;;;;;;3.20;2.60;;;14.70;99.90;;;;;;5068826;28;20486;-70
2021/07/16 00:36:45;;;;;;;5.43;3.30;;;14.70;99.90;;;;;;5068508;28;20528;-69
2021/07/16 00:39:12;;;;;;;4.27;3.20;;;14.60;99.90;;;;;;5067746;28;20462;-69
2021/07/16 00:41:39;;;;;;;3.67;2.97;;;14.60;99.90;;;;;;5068146;28;20950;-69
2021/07/16 00:44:06;;;;;;;5.30;2.90;;;14.60;99.90;;;;;;5068233;28;20478;-69
2021/07/16 00:46:33;;;;;;;3.90;2.90;;;14.60;99.90;;;;;;5068036;28;20566;-69
2021/07/16 00:49:01;;;;;;;2.57;2.30;;;14.50;99.90;;;;;;5067880;28;20512;-69
2021/07/16 00:51:28;;;;;;;3.03;2.67;;;14.50;99.90;;;;;;5068143;28;20470;-69
2021/07/16 00:53:55;;;;;;;3.27;2.97;;;14.50;99.90;;;;;;5067806;28;20738;-69
2021/07/16 00:56:21;;;;;;;6.00;2.80;;;14.40;99.90;;;;;;5069886;28;20504;-69
2021/07/16 00:58:48;;;;;;;3.07;2.80;;;14.40;99.90;;;;;;5071754;28;20508;-69
2021/07/16 01:01:15;;;;;;;2.93;2.73;;;14.40;99.90;;;;;;5071757;28;20471;-69
2021/07/16 01:03:42;;;;;;;3.73;3.17;;;14.40;99.90;;;;;;5072034;28;20531;-69
2021/07/16 01:06:10;;;;;;;7.20;3.40;;;14.30;99.90;;;;;;5071609;28;20466;-70
2021/07/16 01:08:37;;;;;;;2.60;2.40;;;14.30;99.90;;;;;;5071861;28;20454;-69
2021/07/16 01:11:03;;;;;;;4.30;3.47;;;14.30;99.90;;;;;;5071852;28;20469;-69
2021/07/16 01:13:30;;;;;;;3.80;3.40;;;14.30;99.90;;;;;;5071743;28;20458;-70
2021/07/16 01:15:57;;;;;;;3.77;3.47;;;14.30;99.90;;;;;;5070922;28;20833;-70
2021/07/16 01:18:24;;;;;;;3.50;2.87;;;14.20;99.90;;;;;;5070910;28;20547;-69
2021/07/16 01:20:51;;;;;;;4.60;3.57;;;14.20;99.90;;;;;;5070156;28;20909;-69
2021/07/16 01:23:22;;;;;;;3.67;3.37;;;14.20;99.90;;;;;;5071827;28;20511;-69
2021/07/16 01:25:49;;;;;;;5.13;3.47;;;14.20;99.90;;;;;;5071594;28;20943;-69
2021/07/16 01:28:17;;;;;;;5.13;3.70;;;14.20;99.90;;;;;;5071620;28;20458;-69
2021/07/16 01:30:44;;;;;;;5.17;3.47;;;14.30;99.90;;;;;;5071027;28;20467;-69
2021/07/16 01:33:11;;;;;;;4.33;3.07;;;14.20;99.90;;;;;;5071472;28;20465;-69
2021/07/16 01:35:38;;;;;;;4.20;3.80;;;14.30;99.90;;;;;;5072058;28;20486;-70
2021/07/16 01:38:04;;;;;;;3.63;3.33;;;14.30;99.90;;;;;;5071222;28;20878;-69
2021/07/16 01:40:37;;;;;;;3.30;3.00;;;14.30;99.90;;;;;;5071170;28;20545;-69
2021/07/16 01:43:05;;;;;;;4.20;3.80;;;14.30;99.90;;;;;;5071138;28;20469;-69
2021/07/16 01:45:34;;;;;;;3.57;3.27;;;14.30;99.90;;;;;;5071436;28;21001;-69
2021/07/16 01:48:03;;;;;;;3.80;3.50;;;14.30;99.90;;;;;;5070939;28;20833;-69
2021/07/16 01:50:31;;;;;;;3.57;3.23;;;14.30;99.90;;;;;;5070788;28;20462;-69
2021/07/16 01:52:58;;;;;;;4.37;3.60;;;14.30;99.90;;;;;;5070734;28;20977;-69
2021/07/16 01:55:26;;;;;;;4.40;3.43;;;14.30;99.90;;;;;;5071233;28;20479;-69
2021/07/16 01:57:55;;;;;;;3.80;3.47;;;14.30;99.90;;;;;;5070760;28;20489;-69
2021/07/16 02:00:25;;;;;;;3.60;3.10;;;14.30;99.90;;;;;;5070638;28;20458;-69
2021/07/16 02:02:55;;;;;;;5.27;3.40;;;14.30;99.90;;;;;;5070809;28;20458;-69
2021/07/16 02:05:22;;;;;;;4.13;3.37;;;14.30;99.90;;;;;;5070930;28;20482;-69
2021/07/16 02:07:51;;;;;;;3.60;3.30;;;14.30;99.90;;;;;;5069851;28;20953;-69
2021/07/16 02:10:18;;;;;;;4.87;3.50;;;14.30;99.90;;;;;;5070157;28;20977;-69
2021/07/16 02:12:45;;;;;;;3.47;3.17;;;14.30;99.90;;;;;;5071448;28;20473;-69
2021/07/16 02:15:19;;;;;;;3.80;3.50;;;14.30;99.90;;;;;;5071420;28;20490;-70
2021/07/16 02:17:47;;;;;;;4.27;3.30;;;14.30;99.90;;;;;;5071143;28;20918;-69
2021/07/16 02:20:26;;;;;;;3.60;3.10;;;14.30;99.90;;;;;;5070139;28;20470;-70
2021/07/16 02:22:54;;;;;;;4.43;3.70;;;14.30;99.90;;;;;;5070349;28;20458;-70
2021/07/16 02:25:23;;;;;;;5.67;3.57;;;14.30;99.90;;;;;;5070278;28;20895;-70
2021/07/16 02:27:53;;;;;;;8.67;3.83;;;14.30;99.90;;;;;;5070224;28;20877;-70
2021/07/16 02:30:23;;;;;;;6.50;3.60;;;14.30;99.90;;;;;;5069591;28;20470;-69
2021/07/16 02:32:49;;;;;;;5.43;3.33;;;14.30;99.90;;;;;;5070122;28;20834;-69
2021/07/16 02:35:18;;;;;;;3.90;3.60;;;14.30;99.90;;;;;;5070320;28;20478;-69
2021/07/16 02:37:45;;;;;;;4.17;3.77;;;14.30;99.90;;;;;;5069912;28;20494;-69
2021/07/16 02:40:14;;;;;;;4.67;3.57;;;14.30;99.90;;;;;;5069948;28;20470;-70
2021/07/16 02:42:42;;;;;;;8.40;3.80;;;14.30;99.90;;;;;;5069658;28;20462;-69
2021/07/16 02:45:11;;;;;;;4.93;4.33;;;14.30;99.90;;;;;;5069925;28;20478;-68
2021/07/16 02:47:40;;;;;;;4.73;4.20;;;14.30;99.90;;;;;;5069839;28;20524;-70
2021/07/16 02:50:08;;;;;;;4.93;3.63;;;14.30;99.90;;;;;;5069479;28;20470;-69
2021/07/16 02:52:35;;;;;;;4.47;4.00;;;14.30;99.90;;;;;;5069962;28;20808;-69
2021/07/16 02:55:02;;;;;;;3.93;3.53;;;14.30;99.90;;;;;;5069652;28;20581;-69
2021/07/16 02:57:29;;;;;;;4.67;4.10;;;14.20;99.90;;;;;;5069742;28;20490;-69
2021/07/16 02:59:56;;;;;;;8.03;3.80;;;14.20;99.90;;;;;;5069104;28;20462;-69
2021/07/16 03:02:22;;;;;;;4.03;3.73;;;14.20;99.90;;;;;;5069715;28;20527;-69
2021/07/16 03:04:50;;;;;;;3.47;3.17;;;14.20;99.90;;;;;;5069164;28;20486;-69
2021/07/16 03:07:17;;;;;;;3.67;3.37;;;14.20;99.90;;;;;;5069815;28;20950;-69
2021/07/16 03:09:44;;;;;;;4.30;3.90;;;14.20;99.90;;;;;;5068796;28;20462;-69
2021/07/16 03:12:12;;;;;;;4.10;3.77;;;14.20;99.90;;;;;;5069657;28;20611;-69
2021/07/16 03:14:39;;;;;;;4.13;3.83;;;14.20;99.90;;;;;;5069180;28;20482;-69
2021/07/16 03:17:06;;;;;;;4.40;4.00;;;14.20;99.90;;;;;;5069297;28;20547;-69
2021/07/16 03:19:33;;;;;;;5.00;4.33;;;14.30;99.90;;;;;;5067696;28;20842;-69
2021/07/16 03:22:01;;;;;;;5.03;3.80;;;14.30;99.90;;;;;;5068923;28;20470;-69
2021/07/16 03:24:28;;;;;;;4.30;3.90;;;14.30;99.90;;;;;;5069527;28;20990;-70
2021/07/16 03:26:54;;;;;;;4.10;3.67;;;14.30;99.90;;;;;;5068855;28;20883;-69
2021/07/16 03:29:21;;;;;;;4.03;3.57;;;14.30;99.90;;;;;;5068866;28;20458;-69
2021/07/16 03:31:48;;;;;;;4.47;4.07;;;14.30;99.90;;;;;;5068669;28;20458;-70
2021/07/16 03:34:14;;;;;;;4.23;3.83;;;14.40;99.90;;;;;;5068712;28;21001;-70
2021/07/16 03:36:41;;;;;;;4.60;4.20;;;14.40;99.90;;;;;;5068071;28;20839;-71
2021/07/16 03:39:09;;;;;;;5.20;3.90;;;14.40;99.90;;;;;;5068445;28;20490;-70
2021/07/16 03:41:37;;;;;;;4.37;3.97;;;14.40;99.90;;;;;;5062985;28;20470;-71
2021/07/16 03:44:04;;;;;;;4.80;4.37;;;14.40;99.90;;;;;;5057115;28;20475;-72
2021/07/16 03:46:31;;;;;;;4.63;4.13;;;14.40;99.90;;;;;;5058225;28;20938;-72
2021/07/16 03:48:58;;;;;;;5.27;4.00;;;14.40;99.90;;;;;;5058920;28;20457;-72
2021/07/16 03:51:24;;;;;;;5.35;4.85;;;14.40;99.90;;;;;;5057865;28;20483;-71
2021/07/16 03:53:51;;;;;;;6.17;3.97;;;14.40;99.90;;;;;;5056088;28;20225;-71
2021/07/16 03:56:19;;;;;;;5.03;4.43;;;14.50;99.90;;;;;;5053093;28;20464;-70
2021/07/16 03:58:46;;;;;;;4.20;3.90;;;14.50;99.90;;;;;;5059573;28;20497;-70
2021/07/16 04:01:14;;;;;;;4.43;4.00;;;14.60;99.90;;;;;;5053596;28;20521;-71
2021/07/16 04:03:41;;;;;;;4.93;4.10;;;14.60;99.90;;;;;;5046360;28;20483;-70
2021/07/16 04:06:09;;;;;;;4.60;4.20;;;14.60;99.90;;;;;;5048349;28;20474;-70
2021/07/16 04:08:37;;;;;;;4.50;4.00;;;14.60;99.90;;;;;;5048495;28;20530;-70
2021/07/16 04:11:04;;;;;;;4.80;4.40;;;14.60;99.90;;;;;;5047076;28;20459;-71
2021/07/16 04:13:32;;;;;;;5.13;4.63;;;14.60;99.90;;;;;;5048146;28;20886;-70
2021/07/16 04:15:59;;;;;;;5.57;4.93;;;14.70;99.90;;;;;;5047728;28;20837;-70
2021/07/16 04:18:26;;;;;;;4.30;4.00;;;14.70;99.90;;;;;;5050822;28;20483;-71
2021/07/16 04:20:52;;;;;;;4.47;4.07;;;14.70;99.90;;;;;;5067710;28;20469;-70
2021/07/16 04:23:19;;;;;;;5.50;5.00;;;14.70;99.90;;;;;;5068344;28;20481;-70
2021/07/16 04:25:46;;;;;;;6.33;4.67;;;14.70;99.90;;;;;;5068380;28;20470;-69
2021/07/16 04:28:13;;;;;;;4.53;4.13;;;14.80;99.90;;;;;;5068105;28;20458;-69
2021/07/16 04:30:41;;;;;;;6.93;4.40;;;14.80;99.90;;;;;;5061753;28;20452;-69
2021/07/16 04:33:09;;;;;;;4.83;4.43;;;14.90;99.90;;;;;;5051599;28;20475;-69
2021/07/16 04:35:36;;;;;;;4.00;3.70;;;14.90;99.90;;;;;;5050460;28;20775;-69
2021/07/16 04:38:03;;;;;;;3.97;3.67;;;14.90;99.90;;;;;;5051648;28;20483;-70
2021/07/16 04:40:32;;;;;;;4.93;4.43;;;14.90;99.90;;;;;;5051702;28;20771;-69
2021/07/16 04:43:00;;;;;;;5.17;4.47;;;14.90;99.90;;;;;;5051452;28;20467;-70
2021/07/16 04:45:27;;;;;;;4.50;4.10;;;14.90;99.90;;;;;;5052216;28;20503;-69
2021/07/16 04:47:55;;;;;;;5.23;4.73;;;14.90;99.90;;;;;;5051488;28;20462;-70
2021/07/16 04:50:22;;;;;;;5.53;4.97;;;14.90;99.90;;;;;;5052309;28;20459;-69
2021/07/16 04:52:50;;;;;;;5.30;4.20;;;15.00;99.90;;;;;;5052854;28;20512;-70
2021/07/16 04:55:18;;;;;;;4.27;3.93;;;15.00;99.90;;;;;;5053128;28;20479;-69
2021/07/16 04:57:45;;;;;;;5.93;4.77;;;15.00;99.90;;;;;;5052667;28;20487;-69
2021/07/16 05:00:14;;;;;;;5.03;4.53;;;15.00;99.90;;;;;;5054851;28;20466;-70
2021/07/16 05:02:41;;;;;;;4.40;4.03;;;15.10;99.90;;;;;;5093329;28;20464;-70
2021/07/16 05:05:10;;;;;;;4.83;4.43;;;15.10;99.90;;;;;;5093050;28;20481;-70
2021/07/16 05:07:38;;;;;;;5.63;4.37;;;15.10;99.90;;;;;;5092924;28;20461;-70
2021/07/16 05:10:06;;;;;;;5.87;4.70;;;15.10;99.90;;;;;;5092156;28;20465;-69
2021/07/16 05:12:34;;;;;;;5.13;4.63;;;15.10;99.90;;;;;;5092790;28;20472;-69
2021/07/16 05:15:01;;;;;;;5.53;5.03;;;15.10;99.90;;;;;;5092671;28;20834;-69
2021/07/16 05:17:28;;;;;;;5.13;4.63;;;15.20;99.90;;;;;;5091630;28;20516;-69
2021/07/16 05:22:24;;;;;;;5.20;4.70;;;15.20;99.90;;;;;;5046421;28;20486;-76
2021/07/16 05:24:51;;;;;;;5.33;4.83;;;15.20;99.90;;;;;;5048352;28;20501;-76
2021/07/16 05:27:17;;;;;;;4.87;4.40;;;15.30;99.90;;;;;;5048271;28;20451;-76
2021/07/16 05:29:44;;;;;;;6.57;4.93;;;15.30;99.90;;;;;;5049770;28;20451;-74
2021/07/16 05:32:11;;;;;;;4.70;4.30;;;15.30;99.90;;;;;;5050216;28;20459;-76
2021/07/16 05:34:37;;;;;;;5.37;4.87;;;15.30;99.90;;;;;;5051046;28;20993;-76
2021/07/16 05:37:04;;;;;;;5.30;4.60;;;15.40;99.90;;;;;;5051092;28;20470;-76
2021/07/16 05:39:32;;;;;;;7.17;4.17;;;15.50;99.90;;;;;;5050648;28;20521;-75
2021/07/16 05:42:03;;;;;;;6.57;5.37;;;15.50;99.90;;;;;;5050557;28;20472;-74
2021/07/16 05:44:30;;;;;;;6.73;5.33;;;15.60;99.90;;;;;;5050372;28;20479;-76
2021/07/16 05:46:57;;;;;;;5.27;4.87;;;15.70;99.90;;;;;;5050938;28;20459;-76
2021/07/16 05:49:23;;;;;;;5.83;5.33;;;15.70;99.90;;;;;;5050185;28;20459;-74
2021/07/16 05:51:50;;;;;;;6.33;5.73;;;15.70;99.90;;;;;;5051109;28;20466;-76
2021/07/16 05:54:17;;;;;;;5.60;5.10;;;15.70;99.90;;;;;;5050563;28;20990;-75
2021/07/16 05:56:45;;;;;;;5.63;5.13;;;15.80;99.90;;;;;;5050724;28;20973;-74
2021/07/16 05:59:12;;;;;;;5.40;4.87;;;15.80;99.90;;;;;;5050059;28;20480;-75
2021/07/16 06:01:39;;;;;;;5.97;5.47;;;15.90;99.90;;;;;;5050816;28;20537;-75
2021/07/16 06:04:10;;;;;;;6.83;6.23;;;15.80;99.90;;;;;;5031889;28;20487;-76
2021/07/16 06:06:37;;;;;;;7.90;7.10;;;15.90;99.90;;;;;;5030970;28;20906;-75
2021/07/16 06:09:05;;;;;;;8.20;7.40;;;15.90;99.90;;;;;;5030289;28;20461;-74
2021/07/16 06:11:32;;;;;;;8.43;7.63;;;15.90;99.90;;;;;;5030412;28;20943;-76
2021/07/16 06:14:00;;;;;;;8.07;7.27;;;16.00;99.90;;;;;;5030586;28;20480;-74
2021/07/16 06:16:27;;;;;;;9.97;7.90;;;16.00;99.90;;;;;;5030977;28;20468;-73
2021/07/16 06:18:54;;;;;;;8.70;7.90;;;16.00;99.90;;;;;;5030616;28;21058;-75
2021/07/16 06:21:20;;;;;;;10.97;8.93;;;16.10;99.90;;;;;;5029635;28;20472;-76
2021/07/16 06:23:47;;;;;;;10.43;9.33;;;16.10;99.90;;;;;;5030446;28;20484;-76
2021/07/16 06:26:21;;;;;;;9.50;8.60;;;16.10;99.90;;;;;;5030352;28;20951;-76
2021/07/16 06:28:48;;;;;;;9.47;8.57;;;16.20;99.90;;;;;;5030702;28;20805;-74
2021/07/16 06:31:16;;;;;;;9.90;8.90;;;16.20;99.90;;;;;;5037064;28;20824;-76
2021/07/16 06:33:43;;;;;;;9.77;8.80;;;16.20;99.90;;;;;;5050429;28;20480;-75
2021/07/16 06:36:09;;;;;;;11.50;8.90;;;16.30;99.90;;;;;;5049857;28;20466;-74
2021/07/16 06:38:36;;;;;;;9.47;8.23;;;16.30;99.90;;;;;;5050023;28;20545;-76
2021/07/16 06:41:03;;;;;;;10.50;9.50;;;16.40;99.90;;;;;;5049486;28;20464;-74
2021/07/16 06:43:30;;;;;;;10.00;9.10;;;16.40;99.90;;;;;;5049827;28;20463;-76
2021/07/16 06:45:57;;;;;;;10.23;9.33;;;16.50;99.90;;;;;;5049935;28;20463;-76
2021/07/16 06:48:25;;;;;;;11.30;9.27;;;16.50;99.90;;;;;;5049488;28;20547;-74
2021/07/16 06:50:51;;;;;;;10.07;9.07;;;16.60;99.90;;;;;;5049008;28;20459;-73
2021/07/16 06:53:18;;;;;;;9.00;8.20;;;16.70;99.90;;;;;;5049178;28;20486;-76
2021/07/16 06:55:45;;;;;;;10.20;9.20;;;16.70;99.90;;;;;;5049575;28;20470;-73
2021/07/16 06:58:11;;;;;;;8.63;7.83;;;16.70;99.90;;;;;;5049688;28;20467;-76
2021/07/16 07:00:38;;;;;;;9.57;8.67;;;16.80;99.90;;;;;;5044019;28;20468;-75
2021/07/16 07:03:05;;;;;;;11.27;8.97;;;16.80;99.90;;;;;;5029715;28;20492;-74
2021/07/16 07:05:34;;;;;;;10.50;8.50;;;16.80;99.90;;;;;;5029624;28;20480;-76
2021/07/16 07:08:00;;;;;;;9.37;8.50;;;16.90;99.90;;;;;;5029715;28;20522;-75
2021/07/16 07:10:27;;;;;;;10.87;7.97;;;16.90;99.90;;;;;;5028741;28;20472;-75
2021/07/16 07:12:54;;;;;;;8.37;7.67;;;16.90;99.90;;;;;;5029536;28;20464;-75
2021/07/16 07:15:20;;;;;;;10.00;9.00;;;17.00;99.90;;;;;;5029208;28;21060;-76
2021/07/16 07:17:47;;;;;;;8.33;7.60;;;17.00;99.90;;;;;;5029684;28;20468;-75
2021/07/16 07:20:15;;;;;;;9.37;8.47;;;17.00;99.90;;;;;;5028471;28;20514;-75
2021/07/16 07:22:43;;;;;;;9.30;8.40;;;17.00;99.90;;;;;;5029451;28;20465;-75
2021/07/16 07:25:10;;;;;;;9.10;8.20;;;17.00;99.90;;;;;;5029049;28;20591;-76
2021/07/16 07:27:37;;;;;;;8.67;7.90;;;17.00;99.90;;;;;;5028765;28;20456;-75
2021/07/16 07:30:06;;;;;;;8.80;8.00;;;17.00;99.90;;;;;;5028854;28;20467;-75
2021/07/16 07:32:32;;;;;;;9.97;8.97;;;17.00;99.90;;;;;;5028872;28;20460;-74
2021/07/16 07:35:11;;;;;;;9.70;8.70;;;16.90;99.90;;;;;;5029208;28;20488;-75
2021/07/16 07:37:38;;;;;;;8.60;7.77;;;16.90;99.90;;;;;;5028815;28;20452;-75
2021/07/16 07:40:09;;;;;;;7.77;7.07;;;16.90;99.90;;;;;;5028462;28;20480;-74
2021/07/16 07:42:36;;;;;;;9.90;7.40;;;16.90;99.90;;;;;;5028834;28;20464;-75
2021/07/16 07:45:05;;;;;;;6.83;6.23;;;16.90;99.90;;;;;;5029148;28;20531;-76
2021/07/16 07:47:33;;;;;;;8.80;7.30;;;16.90;99.90;;;;;;5028744;28;20471;-75
2021/07/16 07:50:01;;;;;;;8.43;7.73;;;17.00;99.90;;;;;;5028897;28;20825;-75
2021/07/16 07:52:28;;;;;;;7.43;6.87;;;17.00;99.90;;;;;;5028874;28;20471;-76
2021/07/16 07:54:55;;;;;;;8.00;7.40;;;17.10;99.90;;;;;;5028679;28;20491;-75
2021/07/16 07:57:23;;;;;;;7.00;6.40;;;17.20;99.90;;;;;;5025305;28;20934;-74
2021/07/16 07:59:50;;;;;;;7.60;6.90;;;17.30;99.90;;;;;;5037411;28;20488;-76
2021/07/16 08:02:17;;;;;;;6.70;6.20;;;17.40;99.90;;;;;;5027280;28;20843;-74
2021/07/16 08:04:43;;;;;;;6.70;6.20;;;17.50;99.90;;;;;;5027492;28;20488;-76
2021/07/16 08:07:10;;;;;;;7.40;6.70;;;17.60;99.90;;;;;;5027437;28;20967;-76
2021/07/16 08:09:38;;;;;;;6.90;6.30;;;17.80;99.90;;;;;;5031663;28;20459;-74
2021/07/16 08:12:06;;;;;;;6.77;6.17;;;17.90;99.90;;;;;;5045921;28;20499;-76
2021/07/16 08:14:34;;;;;;;7.80;7.20;;;18.00;99.90;;;;;;5028930;28;20480;-76
2021/07/16 08:17:01;;;;;;;5.60;5.20;;;18.00;99.90;;;;;;5029011;28;20467;-76
2021/07/16 08:19:27;;;;;;;5.00;4.60;;;18.00;99.90;;;;;;5028005;28;20499;-74
2021/07/16 08:21:55;;;;;;;6.00;5.40;;;18.00;99.90;;;;;;5043596;28;20474;-76
2021/07/16 08:24:23;;;;;;;5.93;5.43;;;18.00;99.90;;;;;;5048348;28;20990;-75
2021/07/16 08:26:50;;;;;;;6.43;5.60;;;18.00;99.90;;;;;;5048225;28;20485;-74
2021/07/16 08:29:18;;;;;;;6.07;5.57;;;18.00;99.90;;;;;;5047912;28;20491;-75
2021/07/16 08:31:47;;;;;;;5.50;5.00;;;18.00;99.90;;;;;;5048234;28;20463;-75
2021/07/16 08:34:15;;;;;;;5.80;5.30;;;18.00;99.90;;;;;;5048337;28;20487;-76
2021/07/16 08:36:42;;;;;;;5.97;5.47;;;18.10;99.90;;;;;;5048118;28;20581;-74
2021/07/16 08:39:09;;;;;;;5.80;5.30;;;18.00;99.90;;;;;;5048025;28;20537;-75
2021/07/16 08:41:36;;;;;;;5.77;5.30;;;18.00;99.90;;;;;;5048038;28;20495;-75
2021/07/16 08:44:04;;;;;;;5.90;5.40;;;18.00;99.90;;;;;;5048149;28;20513;-73
2021/07/16 08:46:31;;;;;;;6.33;5.77;;;18.10;99.90;;;;;;5047781;28;20486;-76
2021/07/16 08:48:59;;;;;;;5.77;5.27;;;18.10;99.90;;;;;;5046868;28;20957;-75
2021/07/16 08:51:28;;;;;;;6.23;5.50;;;18.10;99.90;;;;;;5047726;28;20463;-76
2021/07/16 08:53:56;;;;;;;5.03;4.57;;;18.10;99.90;;;;;;5047737;28;20576;-75
2021/07/16 08:56:24;;;;;;;6.00;4.53;;;18.20;99.90;;;;;;5048144;28;20471;-75
2021/07/16 08:58:51;;;;;;;5.43;5.03;;;18.30;99.90;;;;;;5047714;28;20487;-75
2021/07/16 09:01:18;;;;;;;5.03;4.63;;;18.30;99.90;;;;;;5047639;28;20474;-73
2021/07/16 09:03:57;;;;;;;7.40;6.23;;;18.40;99.90;;;;;;5048081;28;20549;-74
2021/07/16 09:06:46;;;;;;;5.37;4.93;;;18.60;99.90;;;;;;5048575;28;20491;-75
2021/07/16 09:09:14;;;;;;;5.27;4.77;;;18.70;99.90;;;;;;5047697;28;20451;-76
2021/07/16 09:11:42;;;;;;;5.63;5.17;;;18.90;99.90;;;;;;5047646;28;20456;-74
2021/07/16 09:14:08;;;;;;;5.60;5.10;;;19.00;99.90;;;;;;5048020;28;20479;-76
2021/07/16 09:16:35;;;;;;;5.07;4.67;;;19.00;99.90;;;;;;5048086;28;20463;-75
2021/07/16 09:19:02;;;;;;;6.70;5.00;;;19.10;99.90;;;;;;5051492;28;20486;-75
2021/07/16 09:21:29;;;;;;;4.70;4.30;;;19.20;99.90;;;;;;5051113;28;20466;-76
2021/07/16 09:24:04;;;;;;;6.10;4.60;;;19.30;99.90;;;;;;5051628;28;20798;-75
2021/07/16 09:26:33;;;;;;;4.33;3.93;;;19.30;99.90;;;;;;5051758;28;20999;-76
2021/07/16 09:29:04;;;;;;;3.93;3.63;;;19.40;99.90;;;;;;5051169;28;20942;-75
2021/07/16 09:31:37;;;;;;;4.60;4.30;;;19.40;99.90;;;;;;5051069;28;20958;-75
2021/07/16 09:34:08;;;;;;;4.33;4.03;;;19.50;99.90;;;;;;5051294;28;20569;-75
2021/07/16 09:36:38;;;;;;;4.30;3.90;;;19.50;99.90;;;;;;5050959;28;20470;-76
2021/07/16 09:39:09;;;;;;;4.00;3.50;;;19.60;99.90;;;;;;5051063;28;21080;-75
2021/07/16 09:41:48;;;;;;;4.20;3.90;;;19.70;99.90;;;;;;5051546;28;20546;-74
2021/07/16 09:44:15;;;;;;;4.57;4.17;;;19.80;99.90;;;;;;5051127;28;20490;-76
2021/07/16 09:47:08;;;;;;;4.20;3.80;;;20.00;99.90;;;;;;5050776;28;20459;-74
2021/07/16 09:49:35;;;;;;;3.47;3.17;;;20.10;99.90;;;;;;5049402;28;20452;-75
2021/07/16 09:52:09;;;;;;;4.80;3.60;;;20.10;99.90;;;;;;5050175;28;20459;-75
2021/07/16 09:54:38;;;;;;;4.63;4.23;;;20.10;99.90;;;;;;5050196;28;21002;-75
2021/07/16 09:57:06;;;;;;;4.20;3.80;;;20.20;99.90;;;;;;5050550;28;20462;-75
2021/07/16 09:59:32;;;;;;;4.60;4.10;;;20.30;99.90;;;;;;5050568;28;20490;-74
2021/07/16 10:02:00;;;;;;;4.10;3.80;;;20.40;99.90;;;;;;5051457;28;20455;-74
2021/07/16 10:04:32;;;;;;;4.27;3.90;;;20.50;99.90;;;;;;5050633;28;21052;-76
2021/07/16 10:06:59;;;;;;;4.10;3.80;;;20.60;99.90;;;;;;5050591;28;20463;-75
2021/07/16 10:09:26;;;;;;;4.70;4.30;;;20.70;99.90;;;;;;5044573;28;20464;-75
2021/07/16 10:11:56;;;;;;;4.57;3.90;;;20.70;99.90;;;;;;5049088;28;20954;-76
2021/07/16 10:14:23;;;;;;;3.73;3.43;;;20.90;99.90;;;;;;5049942;28;20541;-76
2021/07/16 10:16:53;;;;;;;4.27;3.97;;;21.00;99.90;;;;;;5050003;28;20955;-76
2021/07/16 10:19:21;;;;;;;4.00;3.70;;;21.00;99.90;;;;;;5029531;28;20491;-74
2021/07/16 10:21:49;;;;;;;3.97;3.67;;;21.10;99.90;;;;;;5030342;28;20472;-76
2021/07/16 10:24:21;;;;;;;4.27;3.97;;;21.20;99.90;;;;;;5028411;28;20487;-76
2021/07/16 10:26:51;;;;;;;4.30;3.80;;;21.20;99.90;;;;;;5028914;28;20760;-76
2021/07/16 10:29:37;;;;;;;4.17;3.87;;;21.30;99.90;;;;;;5027803;28;20548;-75
2021/07/16 10:32:04;;;;;;;3.97;3.67;;;21.40;99.90;;;;;;5030721;28;20562;-76
2021/07/16 10:34:34;;;;;;;4.17;3.77;;;21.40;99.90;;;;;;5030232;28;20492;-74
2021/07/16 10:37:03;;;;;;;3.63;3.33;;;21.40;99.90;;;;;;5030611;28;20467;-74
2021/07/16 10:39:43;;;;;;;4.10;3.70;;;21.50;99.90;;;;;;5029629;28;20913;-74
2021/07/16 10:42:44;;;;;;;3.40;3.10;;;21.50;99.90;;;;;;5050384;28;20467;-73
2021/07/16 10:45:13;;;;;;;3.40;3.10;;;21.60;99.90;;;;;;5050363;28;20987;-75
2021/07/16 10:47:42;;;;;;;3.57;3.27;;;21.70;99.90;;;;;;5050151;28;20496;-73
2021/07/16 10:50:11;;;;;;;3.10;2.90;;;21.70;99.90;;;;;;5049786;28;20456;-76
2021/07/16 10:52:46;;;;;;;3.13;2.93;;;21.80;99.90;;;;;;5049848;28;20471;-76
2021/07/16 10:55:14;;;;;;;3.30;3.00;;;21.90;99.90;;;;;;5050099;28;20479;-75
2021/07/16 10:57:42;;;;;;;3.30;3.00;;;22.00;99.90;;;;;;5049915;28;20482;-75
2021/07/16 11:00:14;;;;;;;3.30;3.10;;;22.10;99.90;;;;;;5048403;28;20498;-75
2021/07/16 11:02:42;;;;;;;3.23;2.93;;;22.10;99.90;;;;;;5029766;28;21056;-75
2021/07/16 11:05:43;;;;;;;2.60;2.40;;;22.10;99.90;;;;;;5029900;28;20996;-75
2021/07/16 11:08:29;;;;;;;3.27;2.97;;;22.20;99.90;;;;;;5029838;28;20522;-75
2021/07/16 11:11:02;;;;;;;2.60;2.40;;;22.30;99.90;;;;;;5029449;28;20530;-75
2021/07/16 11:13:36;;;;;;;2.90;2.70;;;22.40;99.90;;;;;;5029537;28;20981;-75
2021/07/16 11:16:36;;;;;;;2.57;2.37;;;22.50;99.90;;;;;;5044584;28;20453;-75
2021/07/16 11:19:16;;;;;;;2.90;2.67;;;22.60;99.90;;;;;;5049306;28;20514;-75
2021/07/16 11:22:05;;;;;;;2.87;2.67;;;22.60;99.90;;;;;;5126391;22;20490;-69
2021/07/16 11:24:35;;;;;;;2.83;2.63;;;22.30;99.90;;;;;;5063908;28;20475;-69
2021/07/16 11:27:11;;;;;;;2.80;2.60;;;22.10;99.90;;;;;;5069084;28;20953;-70
2021/07/16 11:29:40;;;;;;;2.73;2.53;;;22.10;99.90;;;;;;5068703;28;20465;-69
2021/07/16 11:32:09;;;;;;;3.00;2.70;;;22.00;99.90;;;;;;5069018;28;20470;-70
2021/07/16 11:34:39;;;;;;;2.90;2.70;;;21.80;99.90;;;;;;5069003;28;20577;-69
2021/07/16 11:37:06;;;;;;;2.60;2.40;;;21.70;99.90;;;;;;5069088;28;20511;-68
2021/07/16 11:39:35;;;;;;;3.33;3.03;;;21.50;99.90;;;;;;5068617;28;20450;-70
2021/07/16 11:42:04;;;;;;;2.63;2.43;;;21.30;99.90;;;;;;5068312;28;20469;-69
2021/07/16 11:44:32;;;;;;;2.80;2.60;;;21.10;99.90;;;;;;5068910;28;20485;-69
2021/07/16 11:46:59;;;;;;;3.13;2.60;;;21.00;99.90;;;;;;5068814;28;20529;-69
2021/07/16 11:49:27;;;;;;;4.53;2.20;;;21.10;99.90;;;;;;5068378;28;20466;-67
2021/07/16 11:52:00;;;;;;;3.20;2.90;;;21.40;99.90;;;;;;5068601;28;20626;-69
2021/07/16 11:54:28;;;;;;;2.40;2.20;;;21.70;99.90;;;;;;5069188;28;20485;-69
2021/07/16 11:56:57;;;;;;;2.30;2.10;;;21.80;99.90;;;;;;5068394;28;20462;-69
2021/07/16 11:59:24;;;;;;;3.20;2.20;;;21.80;99.90;;;;;;5057060;28;20462;-69
2021/07/16 12:02:13;;;;;;;2.37;2.17;;;21.60;99.90;;;;;;5067300;28;20493;-69
2021/07/16 12:04:42;;;;;;;2.67;2.37;;;21.40;99.90;;;;;;5022161;28;20488;-70
2021/07/16 12:07:11;;;;;;;2.40;2.20;;;21.40;99.90;;;;;;5027545;28;20475;-68
2021/07/16 12:09:41;;;;;;;2.47;2.00;;;21.60;99.90;;;;;;5027516;28;20515;-69
2021/07/16 12:12:10;;;;;;;1.97;1.87;;;21.80;99.90;;;;;;5027854;28;20541;-69
2021/07/16 12:14:48;;;;;;;2.10;1.90;;;22.00;99.90;;;;;;5027675;28;20490;-69
2021/07/16 12:17:16;;;;;;;1.77;1.67;;;22.20;99.90;;;;;;5028058;28;20467;-69
2021/07/16 12:19:43;;;;;;;2.23;2.03;;;22.30;99.90;;;;;;5027113;28;20810;-69
2021/07/16 12:22:13;;;;;;;2.03;1.93;;;22.40;99.90;;;;;;5027454;28;20882;-69
2021/07/16 12:24:41;;;;;;;1.80;1.70;;;22.50;99.90;;;;;;5028600;28;20475;-70
2021/07/16 12:27:10;;;;;;;1.60;1.50;;;22.50;99.90;;;;;;5046948;28;20542;-69
2021/07/16 12:29:37;;;;;;;1.70;1.50;;;22.40;99.90;;;;;;5046326;28;20470;-69
2021/07/16 12:32:04;;;;;;;2.00;1.80;;;22.50;99.90;;;;;;5046616;28;20501;-72
2021/07/16 12:34:31;;;;;;;1.63;1.53;;;22.40;99.90;;;;;;5047250;28;20544;-68
2021/07/16 12:37:09;;;;;;;1.60;1.50;;;22.30;99.90;;;;;;5046798;28;20554;-70
2021/07/16 12:39:37;;;;;;;1.83;1.73;;;22.20;99.90;;;;;;5046260;28;20466;-70
2021/07/16 12:42:12;;;;;;;2.10;1.90;;;22.00;99.90;;;;;;5046057;28;20525;-69
2021/07/16 12:44:39;;;;;;;1.80;1.70;;;21.90;99.90;;;;;;5046746;28;20489;-70
2021/07/16 12:47:06;;;;;;;2.20;2.00;;;21.70;99.90;;;;;;5046729;28;20507;-69
2021/07/16 12:49:33;;;;;;;2.90;2.27;;;21.60;99.90;;;;;;5046208;28;20528;-70
2021/07/16 12:52:11;;;;;;;4.07;1.90;;;21.50;99.90;;;;;;5047545;28;20466;-68
2021/07/16 12:54:39;;;;;;;2.07;1.87;;;21.40;99.90;;;;;;5050999;28;20482;-69
2021/07/16 12:57:16;;;;;;;2.33;2.13;;;21.30;99.90;;;;;;5050587;28;20463;-69